createdAt,value
2022-08-30T00:02:26.407Z,26.33
2022-08-30T00:05:09.482Z,26.27
2022-08-30T00:10:42.061Z,29.05
2022-08-30T00:13:32.364Z,30.80
2022-08-30T00:16:21.495Z,31.63
2022-08-30T00:19:09.564Z,32.13
2022-08-30T00:21:51.407Z,34.97
2022-08-30T00:24:33.613Z,34.95
2022-08-30T00:27:22.407Z,34.17
2022-08-30T00:30:12.393Z,33.67
2022-08-30T00:32:55.652Z,32.58
2022-08-30T00:35:44.409Z,32.35
2022-08-30T00:38:26.654Z,32.78
2022-08-30T00:41:21.398Z,32.30
2022-08-30T00:44:03.824Z,34.88
2022-08-30T00:46:52.307Z,32.65
2022-08-30T00:49:36.445Z,32.90
2022-08-30T00:52:25.288Z,31.80
2022-08-30T00:55:15.280Z,31.27
2022-08-30T00:58:03.937Z,32.92
2022-08-30T01:00:54.667Z,33.65
2022-08-30T01:03:38.316Z,34.40
2022-08-30T01:06:35.375Z,39.08
2022-08-30T01:09:24.394Z,35.80
2022-08-30T01:12:06.664Z,34.78
2022-08-30T01:14:55.313Z,34.75
2022-08-30T01:17:44.275Z,31.95
2022-08-30T01:20:42.932Z,31.05
2022-08-30T01:23:29.302Z,30.88
2022-08-30T01:26:12.798Z,32.97
2022-08-30T01:29:09.439Z,31.95
2022-08-30T01:31:58.726Z,32.55
2022-08-30T01:34:40.366Z,33.13
2022-08-30T01:37:29.706Z,33.28
2022-08-30T01:40:19.488Z,33.88
2022-08-30T01:43:07.974Z,32.35
2022-08-30T01:45:51.451Z,33.40
2022-08-30T01:48:40.378Z,34.05
2022-08-30T01:51:30.375Z,33.03
2022-08-30T01:54:19.708Z,33.13
2022-08-30T01:57:01.365Z,32.17
2022-08-30T01:59:55.398Z,31.88
2022-08-30T02:02:47.693Z,32.70
2022-08-30T02:05:36.415Z,31.58
2022-08-30T02:08:18.658Z,32.97
2022-08-30T02:11:08.429Z,32.53
2022-08-30T02:13:51.745Z,33.00
2022-08-30T02:19:23.716Z,26.55
2022-08-30T02:22:13.265Z,28.15
2022-08-30T02:25:02.395Z,25.92
2022-08-30T02:27:51.368Z,26.88
2022-08-30T02:30:33.677Z,25.55
2022-08-30T02:33:23.379Z,27.02
2022-08-30T02:36:05.645Z,24.77
2022-08-30T02:38:54.294Z,23.52
2022-08-30T02:41:43.377Z,19.67
2022-08-30T02:44:38.253Z,20.98
2022-08-30T02:47:27.396Z,25.60
2022-08-30T02:50:12.651Z,26.92
2022-08-30T02:53:01.400Z,26.73
2022-08-30T02:55:50.277Z,28.67
2022-08-30T02:58:39.396Z,28.38
2022-08-30T03:01:25.281Z,27.85
2022-08-30T03:04:16.273Z,28.73
2022-08-30T03:07:05.366Z,28.58
2022-08-30T03:09:54.006Z,29.30
2022-08-30T03:12:36.403Z,27.92
2022-08-30T03:15:25.377Z,29.83
2022-08-30T03:18:07.576Z,30.40
2022-08-30T03:20:56.388Z,28.98
2022-08-30T03:23:38.692Z,27.55
2022-08-30T03:26:27.386Z,27.73
2022-08-30T03:29:09.635Z,30.65
2022-08-30T03:32:01.447Z,31.60
2022-08-30T03:34:43.676Z,31.60
2022-08-30T03:37:33.283Z,29.27
2022-08-30T03:40:18.060Z,32.05
2022-08-30T03:43:13.412Z,33.25
2022-08-30T03:46:02.118Z,38.80
2022-08-30T03:48:45.493Z,36.85
2022-08-30T03:51:34.233Z,35.25
2022-08-30T03:54:17.362Z,37.22
2022-08-30T03:56:59.594Z,36.60
2022-08-30T03:59:48.362Z,36.83
2022-08-30T04:02:36.793Z,39.65
2022-08-30T04:05:19.364Z,40.95
2022-08-30T04:08:08.299Z,44.45
2022-08-30T04:10:57.375Z,40.38
2022-08-30T04:13:46.358Z,38.83
2022-08-30T04:16:28.633Z,31.00
2022-08-30T04:19:17.380Z,28.13
2022-08-30T04:21:59.567Z,29.35
2022-08-30T04:24:49.378Z,30.08
2022-08-30T04:27:31.653Z,31.48
2022-08-30T04:30:21.365Z,32.88
2022-08-30T04:33:03.686Z,34.60
2022-08-30T04:35:56.393Z,41.20
2022-08-30T04:38:40.427Z,46.00
2022-08-30T04:41:32.695Z,50.90
2022-08-30T04:44:27.258Z,49.60
2022-08-30T04:47:22.365Z,45.55
2022-08-30T04:50:12.494Z,34.83
2022-08-30T04:52:55.641Z,28.50
2022-08-30T04:55:44.310Z,27.55
2022-08-30T04:58:26.722Z,26.05
2022-08-30T05:01:45.694Z,35.55
2022-08-30T05:04:28.654Z,36.83
2022-08-30T05:07:17.408Z,39.55
2022-08-30T05:09:59.810Z,41.63
2022-08-30T05:12:48.381Z,44.83
2022-08-30T05:15:30.557Z,43.38
2022-08-30T05:18:20.375Z,43.13
2022-08-30T05:21:17.637Z,53.15
2022-08-30T05:24:10.364Z,62.30
2022-08-30T05:26:52.572Z,59.97
2022-08-30T05:29:41.457Z,56.80
2022-08-30T05:32:23.739Z,56.83
2022-08-30T05:35:14.402Z,54.00
2022-08-30T05:37:56.721Z,51.45
2022-08-30T05:40:50.436Z,50.20
2022-08-30T05:43:33.554Z,49.05
2022-08-30T05:46:30.467Z,47.53
2022-08-30T05:49:25.283Z,39.53
2022-08-30T05:52:16.578Z,34.60
2022-08-30T05:55:06.435Z,30.88
2022-08-30T05:57:55.617Z,30.33
2022-08-30T06:00:38.298Z,31.50
2022-08-30T06:06:11.404Z,29.85
2022-08-30T06:08:59.626Z,31.17
2022-08-30T06:11:42.621Z,35.08
2022-08-30T06:14:31.664Z,37.35
2022-08-30T06:17:14.365Z,38.65
2022-08-30T06:20:03.306Z,38.65
2022-08-30T06:22:52.284Z,39.83
2022-08-30T06:25:44.555Z,38.47
2022-08-30T06:28:26.661Z,37.88
2022-08-30T06:31:16.717Z,36.13
2022-08-30T06:33:59.363Z,33.13
2022-08-30T06:36:41.881Z,32.20
2022-08-30T06:39:30.387Z,32.33
2022-08-30T06:42:19.368Z,33.15
2022-08-30T06:45:11.047Z,33.78
2022-08-30T06:48:00.380Z,33.78
2022-08-30T06:50:48.650Z,37.65
2022-08-30T06:53:31.306Z,37.85
2022-08-30T06:59:03.600Z,38.55
2022-08-30T07:01:52.401Z,40.10
2022-08-30T07:04:34.746Z,42.63
2022-08-30T07:07:23.377Z,45.53
2022-08-30T07:10:05.708Z,49.50
2022-08-30T07:12:54.407Z,47.95
2022-08-30T07:15:38.113Z,50.33
2022-08-30T07:18:46.305Z,47.40
2022-08-30T07:21:46.416Z,48.83
2022-08-30T07:24:28.467Z,51.40
2022-08-30T07:27:17.373Z,37.55
2022-08-30T07:30:05.643Z,27.42
2022-08-30T07:32:48.682Z,33.53
2022-08-30T07:35:30.602Z,32.70
2022-08-30T07:38:19.382Z,31.55
2022-08-30T07:41:02.479Z,29.40
2022-08-30T07:43:51.426Z,31.25
2022-08-30T07:46:33.911Z,26.88
2022-08-30T07:49:28.385Z,26.45
2022-08-30T07:52:17.763Z,25.08
2022-08-30T07:54:59.399Z,24.55
2022-08-30T07:57:47.714Z,24.42
2022-08-30T08:00:30.381Z,22.30
2022-08-30T08:03:18.751Z,21.70
2022-08-30T08:06:01.502Z,21.80
2022-08-30T08:08:53.635Z,21.63
2022-08-30T08:11:43.379Z,23.58
2022-08-30T08:14:25.656Z,18.92
2022-08-30T08:17:15.413Z,18.57
2022-08-30T08:20:03.633Z,15.90
2022-08-30T08:22:45.387Z,14.77
2022-08-30T08:25:34.369Z,15.07
2022-08-30T08:28:24.352Z,15.88
2022-08-30T08:31:27.360Z,13.77
2022-08-30T08:34:23.352Z,14.80
2022-08-30T08:37:12.303Z,13.32
2022-08-30T08:39:54.764Z,13.57
2022-08-30T08:43:20.286Z,14.65
2022-08-30T08:46:11.618Z,13.30
2022-08-30T08:49:05.390Z,15.55
2022-08-30T08:52:19.218Z,13.27
2022-08-30T08:58:05.419Z,13.00
2022-08-30T09:00:47.669Z,12.27
2022-08-30T09:03:37.389Z,12.98
2022-08-30T09:06:52.654Z,13.07
2022-08-30T09:09:45.452Z,13.88
2022-08-30T09:12:28.711Z,13.73
2022-08-30T09:15:30.455Z,14.80
2022-08-30T09:18:19.842Z,15.27
2022-08-30T09:21:18.467Z,15.00
2022-08-30T09:24:20.667Z,14.70
2022-08-30T09:27:38.399Z,14.63
2022-08-30T09:30:39.437Z,12.90
2022-08-30T09:33:28.670Z,12.73
2022-08-30T09:36:34.415Z,12.80
2022-08-30T09:39:23.740Z,15.48
2022-08-30T09:42:42.403Z,18.30
2022-08-30T09:45:38.611Z,18.70
2022-08-30T09:48:48.392Z,17.23
2022-08-30T09:51:37.712Z,18.13
2022-08-30T09:54:45.721Z,16.42
2022-08-30T09:58:05.380Z,16.25
2022-08-30T10:01:45.614Z,15.40
2022-08-30T10:04:48.362Z,15.02
2022-08-30T10:08:01.295Z,15.43
2022-08-30T10:11:04.376Z,17.63
2022-08-30T10:14:19.723Z,17.63
2022-08-30T10:17:17.491Z,17.05
2022-08-30T10:20:26.664Z,16.08
2022-08-30T10:23:34.287Z,17.13
2022-08-30T10:26:45.364Z,16.48
2022-08-30T10:29:47.271Z,16.10
2022-08-30T10:33:12.260Z,16.20
2022-08-30T10:36:05.276Z,15.15
2022-08-30T10:39:00.540Z,17.35
2022-08-30T10:42:06.363Z,15.98
2022-08-30T10:45:04.250Z,15.35
2022-08-30T10:48:08.710Z,16.10
2022-08-30T10:51:00.234Z,13.80
2022-08-30T10:54:09.390Z,13.32
2022-08-30T10:57:07.229Z,14.73
2022-08-30T11:00:08.282Z,13.40
2022-08-30T11:03:21.405Z,13.07
2022-08-30T11:06:17.947Z,11.93
2022-08-30T11:09:12.367Z,12.20
2022-08-30T11:12:29.380Z,11.20
2022-08-30T11:15:34.383Z,11.13
2022-08-30T11:18:17.534Z,10.63
2022-08-30T11:21:30.275Z,10.90
2022-08-30T11:24:24.571Z,9.85
2022-08-30T11:27:15.377Z,10.30
2022-08-30T11:29:57.550Z,10.05
2022-08-30T11:33:39.357Z,10.50
2022-08-30T11:36:37.812Z,13.70
2022-08-30T11:40:04.375Z,11.65
2022-08-30T11:42:56.353Z,11.93
2022-08-30T11:45:45.338Z,12.50
2022-08-30T11:48:56.306Z,12.45
2022-08-30T11:52:27.594Z,12.40
2022-08-30T11:55:43.265Z,13.70
2022-08-30T11:59:00.258Z,13.52
2022-08-30T12:01:56.586Z,14.65
2022-08-30T12:04:46.676Z,15.75
2022-08-30T12:08:12.262Z,15.60
2022-08-30T12:11:16.360Z,16.38
2022-08-30T12:14:01.659Z,17.75
2022-08-30T12:17:15.279Z,17.85
2022-08-30T12:19:58.545Z,17.92
2022-08-30T12:22:48.242Z,18.95
2022-08-30T12:25:38.665Z,19.40
2022-08-30T12:28:33.363Z,18.85
2022-08-30T12:31:23.037Z,20.30
2022-08-30T12:34:12.266Z,20.00
2022-08-30T12:37:19.381Z,20.25
2022-08-30T12:40:07.365Z,19.98
2022-08-30T12:43:08.274Z,20.52
2022-08-30T12:45:52.006Z,20.05
2022-08-30T12:48:42.347Z,22.70
2022-08-30T12:51:42.448Z,25.23
2022-08-30T12:54:38.271Z,25.70
2022-08-30T12:57:52.672Z,28.05
2022-08-30T13:01:00.483Z,25.88
2022-08-30T13:03:55.270Z,26.08
2022-08-30T13:06:58.295Z,28.55
2022-08-30T13:09:56.368Z,26.57
2022-08-30T13:12:51.218Z,27.80
2022-08-30T13:15:43.394Z,27.45
2022-08-30T13:18:44.699Z,29.70
2022-08-30T13:21:41.393Z,29.70
2022-08-30T13:24:25.635Z,28.73
2022-08-30T13:27:17.356Z,28.73
2022-08-30T13:30:00.028Z,29.35
2022-08-30T13:32:49.420Z,30.42
2022-08-30T13:35:32.702Z,28.90
2022-08-30T13:38:21.388Z,29.52
2022-08-30T13:41:03.750Z,29.83
2022-08-30T13:44:11.295Z,32.80
2022-08-30T13:47:32.157Z,34.17
2022-08-30T13:50:08.370Z,32.92
2022-08-30T13:52:51.673Z,34.90
2022-08-30T13:55:40.665Z,33.25
2022-08-30T13:58:22.544Z,38.08
2022-08-30T14:01:11.405Z,35.78
2022-08-30T14:07:20.393Z,40.42
2022-08-30T14:13:17.357Z,37.05
2022-08-30T14:19:10.366Z,38.00
2022-08-30T14:21:53.731Z,38.80
2022-08-30T14:24:42.349Z,37.83
2022-08-30T14:27:32.380Z,36.95
2022-08-30T14:30:21.373Z,34.17
2022-08-30T14:33:10.339Z,37.08
2022-08-30T14:36:01.674Z,36.53
2022-08-30T14:38:44.419Z,39.92
2022-08-30T14:41:32.642Z,39.88
2022-08-30T14:44:14.385Z,39.05
2022-08-30T14:46:57.132Z,40.35
2022-08-30T14:49:46.270Z,38.95
2022-08-30T14:52:40.340Z,41.72
2022-08-30T14:58:11.271Z,40.08
2022-08-30T15:01:00.784Z,40.10
2022-08-30T15:03:49.349Z,40.88
2022-08-30T15:06:34.741Z,42.25
2022-08-30T15:09:28.279Z,41.85
2022-08-30T15:12:23.355Z,42.92
2022-08-30T15:15:06.789Z,44.00
2022-08-30T15:17:58.330Z,44.55
2022-08-30T15:20:57.385Z,43.38
2022-08-30T15:23:39.641Z,42.95
2022-08-30T15:26:29.299Z,42.22
2022-08-30T15:29:11.689Z,43.47
2022-08-30T15:32:00.387Z,45.72
2022-08-30T15:34:55.707Z,42.55
2022-08-30T15:37:38.827Z,41.08
2022-08-30T15:40:27.515Z,39.85
2022-08-30T15:43:16.445Z,42.90
2022-08-30T15:45:58.635Z,39.50
2022-08-30T15:48:47.396Z,40.47
2022-08-30T15:51:30.777Z,41.88
2022-08-30T15:54:31.339Z,42.40
2022-08-30T15:57:21.245Z,41.22
2022-08-30T16:00:11.531Z,41.03
2022-08-30T16:02:57.350Z,43.08
2022-08-30T16:05:45.676Z,44.28
2022-08-30T16:08:27.349Z,44.88
2022-08-30T16:11:25.262Z,46.33
2022-08-30T16:14:21.472Z,43.55
2022-08-30T16:17:09.375Z,43.97
2022-08-30T16:19:52.230Z,44.75
2022-08-30T16:22:45.809Z,43.72
2022-08-30T16:25:39.899Z,44.65
2022-08-30T16:28:29.725Z,45.55
2022-08-30T16:31:13.301Z,44.35
2022-08-30T16:34:04.269Z,43.60
2022-08-30T16:36:47.089Z,44.30
2022-08-30T16:39:36.354Z,44.50
2022-08-30T16:42:20.985Z,42.15
2022-08-30T16:45:03.294Z,40.92
2022-08-30T16:47:59.368Z,41.90
2022-08-30T16:50:44.735Z,43.13
2022-08-30T16:53:33.514Z,44.70
2022-08-30T16:56:22.479Z,44.60
2022-08-30T16:59:14.110Z,42.53
2022-08-30T17:02:02.419Z,45.50
2022-08-30T17:04:46.941Z,45.13
2022-08-30T17:07:44.684Z,44.50
2022-08-30T17:10:35.133Z,44.63
2022-08-30T17:13:31.101Z,47.08
2022-08-30T17:16:27.874Z,47.25
2022-08-30T17:19:26.846Z,45.28
2022-08-30T17:22:12.286Z,45.22
2022-08-30T17:25:02.236Z,48.40
2022-08-30T17:27:45.377Z,48.95
2022-08-30T17:30:34.336Z,49.47
2022-08-30T17:33:23.156Z,49.28
2022-08-30T17:36:12.370Z,50.42
2022-08-30T17:39:04.273Z,47.63
2022-08-30T17:42:00.901Z,49.97
2022-08-30T17:44:50.815Z,47.03
2022-08-30T17:47:36.050Z,49.15
2022-08-30T17:50:25.509Z,48.00
2022-08-30T17:53:10.115Z,46.90
2022-08-30T17:55:59.099Z,45.97
2022-08-30T17:58:42.609Z,46.95
2022-08-30T18:01:31.459Z,47.25
2022-08-30T18:04:14.426Z,46.10
2022-08-30T18:07:08.356Z,46.75
2022-08-30T18:09:54.574Z,46.22
2022-08-30T18:12:49.115Z,46.53
2022-08-30T18:15:44.251Z,44.88
2022-08-30T18:18:33.119Z,45.22
2022-08-30T18:21:28.449Z,45.95
2022-08-30T18:24:18.341Z,44.80
2022-08-30T18:27:07.111Z,43.13
2022-08-30T18:29:55.561Z,44.63
2022-08-30T18:32:38.141Z,42.58
2022-08-30T18:35:26.933Z,43.85
2022-08-30T18:38:08.351Z,46.03
2022-08-30T18:40:57.390Z,43.85
2022-08-30T18:43:40.360Z,43.17
2022-08-30T18:46:29.509Z,48.45
2022-08-30T18:49:16.384Z,43.22
2022-08-30T18:52:06.115Z,32.13
2022-08-30T18:54:52.880Z,35.03
2022-08-30T18:57:42.345Z,36.97
2022-08-30T19:00:25.407Z,36.28
2022-08-30T19:03:14.359Z,38.33
2022-08-30T19:05:56.526Z,37.47
2022-08-30T19:08:49.021Z,37.30
2022-08-30T19:11:31.330Z,37.40
2022-08-30T19:14:20.365Z,36.20
2022-08-30T19:17:06.744Z,35.85
2022-08-30T19:19:56.258Z,36.33
2022-08-30T19:23:06.339Z,36.60
2022-08-30T19:25:52.740Z,36.05
2022-08-30T19:28:37.284Z,37.60
2022-08-30T19:31:26.388Z,38.33
2022-08-30T19:34:09.470Z,36.35
2022-08-30T19:36:58.340Z,39.05
2022-08-30T19:39:41.801Z,38.97
2022-08-30T19:42:31.096Z,38.47
2022-08-30T19:45:14.674Z,38.20
2022-08-30T19:48:05.396Z,35.70
2022-08-30T19:50:47.835Z,36.33
2022-08-30T19:53:36.370Z,37.20
2022-08-30T19:56:18.524Z,35.38
2022-08-30T19:59:07.384Z,32.78
2022-08-30T20:01:49.608Z,32.17
2022-08-30T20:04:40.998Z,31.65
2022-08-30T20:07:31.119Z,30.67
2022-08-30T20:10:25.895Z,27.60
2022-08-30T20:13:09.352Z,29.63
2022-08-30T20:16:10.973Z,26.35
2022-08-30T20:19:03.331Z,25.40
2022-08-30T20:21:47.084Z,23.90
2022-08-30T20:24:39.383Z,23.90
2022-08-30T20:27:26.333Z,22.80
2022-08-30T20:30:17.347Z,22.90
2022-08-30T20:33:01.578Z,22.13
2022-08-30T20:35:52.057Z,20.50
2022-08-30T20:38:34.439Z,20.83
2022-08-30T20:41:25.336Z,20.88
2022-08-30T20:44:07.376Z,20.55
2022-08-30T20:47:00.258Z,20.40
2022-08-30T20:49:49.233Z,19.52
2022-08-30T20:52:31.584Z,19.77
2022-08-30T20:55:20.995Z,18.73
2022-08-30T20:58:09.290Z,17.70
2022-08-30T21:00:52.846Z,17.70
2022-08-30T21:03:34.050Z,16.42
2022-08-30T21:06:24.339Z,16.42
2022-08-30T21:09:14.460Z,17.83
2022-08-30T21:11:57.347Z,17.10
2022-08-30T21:14:52.190Z,15.60
2022-08-30T21:17:41.133Z,17.45
2022-08-30T21:20:24.236Z,16.05
2022-08-30T21:23:13.093Z,15.23
2022-08-30T21:25:55.743Z,16.05
2022-08-30T21:28:44.348Z,16.75
2022-08-30T21:31:31.379Z,15.43
2022-08-30T21:34:20.248Z,16.33
2022-08-30T21:37:02.646Z,15.35
2022-08-30T21:39:51.268Z,15.45
2022-08-30T21:42:33.578Z,15.55
2022-08-30T21:45:22.979Z,15.57
2022-08-30T21:48:04.377Z,15.23
2022-08-30T21:50:54.030Z,15.48
2022-08-30T21:53:36.393Z,17.00
2022-08-30T21:56:29.294Z,15.07
2022-08-30T21:59:12.594Z,16.55
2022-08-30T22:02:03.022Z,16.48
2022-08-30T22:04:52.099Z,15.70
2022-08-30T22:07:40.891Z,15.20
2022-08-30T22:10:23.345Z,17.10
2022-08-30T22:13:14.061Z,17.35
2022-08-30T22:16:03.005Z,16.05
2022-08-30T22:18:46.412Z,16.95
2022-08-30T22:21:37.087Z,16.85
2022-08-30T22:24:20.405Z,16.60
2022-08-30T22:27:09.976Z,15.95
2022-08-30T22:29:52.519Z,17.17
2022-08-30T22:32:41.125Z,17.27
2022-08-30T22:35:23.874Z,16.25
2022-08-30T22:38:12.406Z,15.70
2022-08-30T22:40:59.644Z,17.85
2022-08-30T22:43:48.171Z,15.52
2022-08-30T22:46:34.326Z,17.48
2022-08-30T22:52:12.001Z,14.95
2022-08-30T22:55:01.266Z,14.82
2022-08-30T22:57:45.628Z,16.20
2022-08-30T23:00:35.240Z,15.73
2022-08-30T23:03:25.248Z,14.25
2022-08-30T23:06:14.388Z,15.82
2022-08-30T23:08:56.315Z,14.98
2022-08-30T23:11:45.388Z,14.40
2022-08-30T23:14:27.402Z,15.13
2022-08-30T23:17:16.352Z,15.13
2022-08-30T23:20:00.186Z,13.75
2022-08-30T23:22:49.347Z,15.25
2022-08-30T23:25:58.344Z,13.95
2022-08-30T23:29:04.658Z,15.40
2022-08-30T23:32:05.120Z,13.98
2022-08-30T23:35:13.042Z,14.02
2022-08-30T23:38:14.324Z,13.40
2022-08-30T23:41:21.025Z,14.13
2022-08-30T23:44:28.013Z,14.20
2022-08-30T23:47:28.799Z,14.30
2022-08-30T23:50:39.212Z,12.18
2022-08-30T23:53:39.709Z,12.63
2022-08-30T23:56:51.341Z,12.77
2022-08-30T23:59:59.591Z,13.20
